Orbital elements of FENGYUN 1C DEB
| Launched | 9 May 1999 |
| Flight ended | – |
| Launch site | Taiyuan Space Center, PRC |
| Owner | People's Republic of China |
| NORAD ID | 30270 |
| Date fetched |
Epoch osculation |
Inc. [°] |
Ecc. | RA asc node [hr] |
Arg Peri. [°] |
Mean anom [°] |
Mean motion [rev/day] |
Abs. mag |
| Date fetched |
Epoch osculation |
Inc. [°] |
Ecc. | RA asc node [hr] |
Arg Peri. [°] |
Mean anom [°] |
Mean motion [rev/day] |
Abs. mag |
| 2026 May 05 17:57 | 2026 May 05 12:22:16 | 98.6952 | 0.00082 | 9.3204 | 114.7017 | 38.8387 | 14.11341 | – |
| 2026 May 04 17:57 | 2026 Apr 30 14:50:02 | 98.6955 | 0.00081 | 9.0040 | 126.9948 | 38.8387 | 14.11341 | – |
| 2026 May 03 17:57 | 2026 Apr 30 14:50:02 | 98.6955 | 0.00081 | 9.0040 | 126.9948 | 38.8387 | 14.11341 | – |
| 2026 May 02 17:57 | 2026 Apr 30 14:50:02 | 98.6955 | 0.00081 | 9.0040 | 126.9948 | 38.8387 | 14.11341 | – |
| 2026 May 01 17:56 | 2026 Apr 30 14:50:02 | 98.6955 | 0.00081 | 9.0040 | 126.9948 | 38.8387 | 14.11341 | – |
| 2026 Apr 30 17:56 | 2026 Apr 30 14:50:02 | 98.6955 | 0.00081 | 9.0040 | 126.9948 | 38.8387 | 14.11341 | – |
| 2026 Apr 29 17:57 | 2026 Apr 24 12:38:37 | 98.6964 | 0.00078 | 8.6105 | 142.3392 | 38.8387 | 14.11341 | – |
| 2026 Apr 28 17:56 | 2026 Apr 24 12:38:37 | 98.6964 | 0.00078 | 8.6105 | 142.3392 | 38.8387 | 14.11341 | – |
| 2026 Apr 27 17:58 | 2026 Apr 24 12:38:37 | 98.6964 | 0.00078 | 8.6105 | 142.3392 | 38.8387 | 14.11341 | – |
| 2026 Apr 26 17:58 | 2026 Apr 24 12:38:37 | 98.6964 | 0.00078 | 8.6105 | 142.3392 | 38.8387 | 14.11341 | – |
| 2026 Apr 25 17:58 | 2026 Apr 24 12:38:37 | 98.6964 | 0.00078 | 8.6105 | 142.3392 | 38.8387 | 14.11341 | – |
| 2026 Apr 24 17:59 | 2026 Apr 24 12:38:37 | 98.6964 | 0.00078 | 8.6105 | 142.3392 | 38.8387 | 14.11341 | – |
| 2026 Apr 23 17:57 | 2026 Apr 19 11:42:05 | 98.6969 | 0.00076 | 8.2850 | 155.2619 | 38.8387 | 14.11341 | – |
| 2026 Apr 22 17:57 | 2026 Apr 19 11:42:05 | 98.6969 | 0.00076 | 8.2850 | 155.2619 | 38.8387 | 14.11341 | – |
| 2026 Apr 21 17:57 | 2026 Apr 19 11:42:05 | 98.6969 | 0.00076 | 8.2850 | 155.2619 | 38.8387 | 14.11341 | – |
| 2026 Apr 20 17:57 | 2026 Apr 19 11:42:05 | 98.6969 | 0.00076 | 8.2850 | 155.2619 | 38.8387 | 14.11341 | – |
| 2026 Apr 19 17:58 | 2026 Apr 19 11:42:05 | 98.6969 | 0.00076 | 8.2850 | 155.2619 | 38.8387 | 14.11341 | – |
| 2026 Apr 18 17:56 | 2026 Apr 13 07:08:20 | 98.6973 | 0.00072 | 7.8851 | 172.2132 | 38.8387 | 14.11341 | – |
| 2026 Apr 16 17:57 | 2026 Apr 13 07:08:20 | 98.6973 | 0.00072 | 7.8851 | 172.2132 | 38.8387 | 14.11341 | – |
| 2026 Apr 14 17:57 | 2026 Apr 13 07:08:20 | 98.6973 | 0.00072 | 7.8851 | 172.2132 | 38.8387 | 14.11341 | – |
| 2026 Apr 13 17:57 | 2026 Apr 13 07:08:20 | 98.6973 | 0.00072 | 7.8851 | 172.2132 | 38.8387 | 14.11341 | – |
| 2026 Apr 12 17:57 | 2026 Apr 08 13:38:09 | 98.6977 | 0.00069 | 7.5795 | 185.3508 | 38.8387 | 14.11341 | – |
| 2026 Apr 11 17:57 | 2026 Apr 08 13:38:09 | 98.6977 | 0.00069 | 7.5795 | 185.3508 | 38.8387 | 14.11341 | – |
| 2026 Apr 10 17:58 | 2026 Apr 08 13:38:09 | 98.6977 | 0.00069 | 7.5795 | 185.3508 | 38.8387 | 14.11341 | – |
| 2026 Apr 09 18:01 | 2026 Apr 08 13:38:09 | 98.6977 | 0.00069 | 7.5795 | 185.3508 | 38.8387 | 14.11341 | – |
| 2026 Apr 08 17:57 | 2026 Apr 08 13:38:09 | 98.6977 | 0.00069 | 7.5795 | 185.3508 | 38.8387 | 14.11341 | – |